createdAt,value
2023-05-10T00:00:43.510Z,5.35
2023-05-10T00:03:10.122Z,6.32
2023-05-10T00:05:36.655Z,6.78
2023-05-10T00:08:03.162Z,7.03
2023-05-10T00:10:29.625Z,6.57
2023-05-10T00:12:56.114Z,6.25
2023-05-10T00:15:22.736Z,8.23
2023-05-10T00:17:49.426Z,8.48
2023-05-10T00:20:16.392Z,7.65
2023-05-10T00:22:43.197Z,7.60
2023-05-10T00:25:10.655Z,7.25
2023-05-10T00:27:37.193Z,6.18
2023-05-10T00:30:04.032Z,6.57
2023-05-10T00:32:30.616Z,7.55
2023-05-10T00:34:57.108Z,6.05
2023-05-10T00:37:23.569Z,5.78
2023-05-10T00:39:50.061Z,5.20
2023-05-10T00:42:16.577Z,6.15
2023-05-10T00:44:43.098Z,4.85
2023-05-10T00:47:10.193Z,5.63
2023-05-10T00:49:37.370Z,4.22
2023-05-10T00:52:04.320Z,4.55
2023-05-10T00:54:31.266Z,4.72
2023-05-10T00:56:58.311Z,4.20
2023-05-10T00:59:24.930Z,4.05
2023-05-10T01:01:52.632Z,4.30
2023-05-10T01:04:20.978Z,4.18
2023-05-10T01:06:47.529Z,4.55
2023-05-10T01:09:14.121Z,5.03
2023-05-10T01:11:41.159Z,3.78
2023-05-10T01:14:08.395Z,4.90
2023-05-10T01:16:39.020Z,5.30
2023-05-10T01:19:18.079Z,4.50
2023-05-10T01:22:11.388Z,5.78
2023-05-10T01:24:59.584Z,6.15
2023-05-10T01:27:46.267Z,5.20
2023-05-10T01:30:37.384Z,5.53
2023-05-10T01:33:14.638Z,4.22
2023-05-10T01:35:47.251Z,4.47
2023-05-10T01:38:21.255Z,5.18
2023-05-10T01:41:05.925Z,4.73
2023-05-10T01:43:43.742Z,3.78
2023-05-10T01:46:21.696Z,3.58
2023-05-10T01:48:59.733Z,3.30
2023-05-10T01:51:30.561Z,3.75
2023-05-10T01:54:02.538Z,4.00
2023-05-10T01:56:31.832Z,3.15
2023-05-10T01:59:01.832Z,4.22
2023-05-10T02:01:28.876Z,3.78
2023-05-10T02:03:57.981Z,3.90
2023-05-10T02:06:26.236Z,4.22
2023-05-10T02:08:54.273Z,4.32
2023-05-10T02:11:21.941Z,4.97
2023-05-10T02:13:51.411Z,5.15
2023-05-10T02:16:19.352Z,4.45
2023-05-10T02:18:47.802Z,4.97
2023-05-10T02:21:16.331Z,5.72
2023-05-10T02:23:44.207Z,5.03
2023-05-10T02:26:12.963Z,5.50
2023-05-10T02:28:41.828Z,6.72
2023-05-10T02:31:10.783Z,6.90
2023-05-10T02:33:41.303Z,6.50
2023-05-10T02:36:10.097Z,6.70
2023-05-10T02:38:37.739Z,7.05
2023-05-10T02:41:06.278Z,6.97
2023-05-10T02:43:34.810Z,7.28
2023-05-10T02:46:01.748Z,7.90
2023-05-10T02:48:28.963Z,7.25
2023-05-10T02:51:01.278Z,8.02
2023-05-10T02:53:33.119Z,7.40
2023-05-10T02:56:09.040Z,7.32
2023-05-10T02:58:35.630Z,7.28
2023-05-10T03:01:02.235Z,9.73
2023-05-10T03:03:28.762Z,7.30
2023-05-10T03:05:56.865Z,7.53
2023-05-10T03:08:24.555Z,7.07
2023-05-10T03:11:33.115Z,8.00
2023-05-10T03:14:14.327Z,7.97
2023-05-10T03:16:47.962Z,6.60
2023-05-10T03:19:22.896Z,6.65
2023-05-10T03:21:53.604Z,6.13
2023-05-10T03:24:22.734Z,6.53
2023-05-10T03:26:51.162Z,6.50
2023-05-10T03:29:18.340Z,6.53
2023-05-10T03:31:45.229Z,7.38
2023-05-10T03:34:12.236Z,6.82
2023-05-10T03:36:38.866Z,6.47
2023-05-10T03:39:05.315Z,6.70
2023-05-10T03:41:31.865Z,6.03
2023-05-10T03:43:59.539Z,6.27
2023-05-10T03:46:26.061Z,6.18
2023-05-10T03:48:52.789Z,5.07
2023-05-10T03:51:19.396Z,4.88
2023-05-10T03:53:45.848Z,5.13
2023-05-10T03:56:12.373Z,5.82
2023-05-10T03:58:38.826Z,6.65
2023-05-10T04:01:05.357Z,6.75
2023-05-10T04:03:31.918Z,8.30
2023-05-10T04:06:02.769Z,7.78
2023-05-10T04:08:29.969Z,7.70
2023-05-10T04:11:06.577Z,6.65
2023-05-10T04:13:33.226Z,8.75
2023-05-10T04:15:59.752Z,9.60
2023-05-10T04:18:26.481Z,9.82
2023-05-10T04:20:53.154Z,8.95
2023-05-10T04:23:19.639Z,10.13
2023-05-10T04:25:46.104Z,11.13
2023-05-10T04:28:12.751Z,10.05
2023-05-10T04:30:39.913Z,8.90
2023-05-10T04:33:06.432Z,11.13
2023-05-10T04:35:32.998Z,10.05
2023-05-10T04:37:59.534Z,10.15
2023-05-10T04:40:26.782Z,9.73
2023-05-10T04:42:53.213Z,9.60
2023-05-10T04:45:19.763Z,10.13
2023-05-10T04:47:46.251Z,12.70
2023-05-10T04:50:12.883Z,10.20
2023-05-10T04:52:39.282Z,10.93
2023-05-10T04:55:07.724Z,11.88
2023-05-10T04:57:34.165Z,12.32
2023-05-10T05:00:01.040Z,11.63
2023-05-10T05:02:27.639Z,11.25
2023-05-10T05:04:54.136Z,11.85
2023-05-10T05:07:20.613Z,13.33
2023-05-10T05:09:47.026Z,11.37
2023-05-10T05:12:15.193Z,12.38
2023-05-10T05:14:42.235Z,12.98
2023-05-10T05:17:09.091Z,15.63
2023-05-10T05:19:35.726Z,14.25
2023-05-10T05:22:02.508Z,15.32
2023-05-10T05:24:28.922Z,13.40
2023-05-10T05:26:55.460Z,12.55
2023-05-10T05:29:21.904Z,12.10
2023-05-10T05:31:48.366Z,12.75
2023-05-10T05:34:14.926Z,15.20
2023-05-10T05:36:41.386Z,12.43
2023-05-10T05:39:08.267Z,13.00
2023-05-10T05:41:34.729Z,12.80
2023-05-10T05:44:01.166Z,14.95
2023-05-10T05:46:27.686Z,13.60
2023-05-10T05:48:54.202Z,12.70
2023-05-10T05:51:21.093Z,12.02
2023-05-10T05:53:47.510Z,12.52
2023-05-10T05:56:13.945Z,13.85
2023-05-10T05:58:40.630Z,11.70
2023-05-10T06:01:07.521Z,14.70
2023-05-10T06:03:34.193Z,16.45
2023-05-10T06:06:00.789Z,15.68
2023-05-10T06:08:27.339Z,15.15
2023-05-10T06:10:53.802Z,19.10
2023-05-10T06:13:20.520Z,17.03
2023-05-10T06:15:47.221Z,19.20
2023-05-10T06:18:13.800Z,21.45
2023-05-10T06:20:42.286Z,19.80
2023-05-10T06:23:08.748Z,21.53
2023-05-10T06:25:35.272Z,27.90
2023-05-10T06:28:02.613Z,26.52
2023-05-10T06:30:30.156Z,28.13
2023-05-10T06:32:57.100Z,26.67
2023-05-10T06:35:23.674Z,27.63
2023-05-10T06:37:50.498Z,31.02
2023-05-10T06:40:17.224Z,30.40
2023-05-10T06:42:44.230Z,29.20
2023-05-10T06:45:11.227Z,30.25
2023-05-10T06:47:39.243Z,29.00
2023-05-10T06:50:06.534Z,29.55
2023-05-10T06:52:33.074Z,30.88
2023-05-10T06:54:59.613Z,33.30
2023-05-10T06:57:31.786Z,33.63
2023-05-10T06:59:59.708Z,36.47
2023-05-10T07:02:26.363Z,34.63
2023-05-10T07:04:53.380Z,36.53
2023-05-10T07:07:20.166Z,36.92
2023-05-10T07:09:46.853Z,33.80
2023-05-10T07:12:15.364Z,34.42
2023-05-10T07:14:42.502Z,35.72
2023-05-10T07:17:09.203Z,33.83
2023-05-10T07:19:36.287Z,38.13
2023-05-10T07:22:02.769Z,33.45
2023-05-10T07:24:29.416Z,32.45
2023-05-10T07:26:55.901Z,34.90
2023-05-10T07:29:22.308Z,32.60
2023-05-10T07:31:48.819Z,33.95
2023-05-10T07:34:15.276Z,34.53
2023-05-10T07:36:41.737Z,31.10
2023-05-10T07:39:08.513Z,33.67
2023-05-10T07:41:35.815Z,31.15
2023-05-10T07:44:02.532Z,31.42
2023-05-10T07:46:29.590Z,32.00
